sensor_id;sensor_type;location;lat;lon;timestamp;temperature;humidity
50162;DHT22;36061;48.116;11.612;2023-06-22T00:00:12;22.20;99.90
50162;DHT22;36061;48.116;11.612;2023-06-22T00:02:39;22.20;99.90
50162;DHT22;36061;48.116;11.612;2023-06-22T00:05:06;22.10;99.90
50162;DHT22;36061;48.116;11.612;2023-06-22T00:07:34;22.10;99.90
50162;DHT22;36061;48.116;11.612;2023-06-22T00:10:03;22.10;99.90
50162;DHT22;36061;48.116;11.612;2023-06-22T00:12:30;22.00;99.90
50162;DHT22;36061;48.116;11.612;2023-06-22T00:14:58;22.00;99.90
50162;DHT22;36061;48.116;11.612;2023-06-22T00:17:25;22.00;99.90
50162;DHT22;36061;48.116;11.612;2023-06-22T00:19:52;21.90;99.90
50162;DHT22;36061;48.116;11.612;2023-06-22T00:22:21;22.00;99.90
50162;DHT22;36061;48.116;11.612;2023-06-22T00:24:54;22.00;99.90
50162;DHT22;36061;48.116;11.612;2023-06-22T00:27:22;22.00;99.90
50162;DHT22;36061;48.116;11.612;2023-06-22T00:29:50;21.90;99.90
50162;DHT22;36061;48.116;11.612;2023-06-22T00:32:17;21.90;99.90
50162;DHT22;36061;48.116;11.612;2023-06-22T00:34:47;22.00;99.90
50162;DHT22;36061;48.116;11.612;2023-06-22T00:37:14;21.90;99.90
50162;DHT22;36061;48.116;11.612;2023-06-22T00:39:42;22.00;99.90
50162;DHT22;36061;48.116;11.612;2023-06-22T00:42:11;21.90;99.90
50162;DHT22;36061;48.116;11.612;2023-06-22T00:44:39;21.90;99.90
50162;DHT22;36061;48.116;11.612;2023-06-22T00:47:07;21.90;99.90
50162;DHT22;36061;48.116;11.612;2023-06-22T00:49:34;21.80;99.90
50162;DHT22;36061;48.116;11.612;2023-06-22T00:52:02;21.80;99.90
50162;DHT22;36061;48.116;11.612;2023-06-22T00:54:30;21.80;99.90
50162;DHT22;36061;48.116;11.612;2023-06-22T00:56:57;21.70;99.90
50162;DHT22;36061;48.116;11.612;2023-06-22T00:59:26;21.70;99.90
50162;DHT22;36061;48.116;11.612;2023-06-22T01:01:55;21.60;99.90
50162;DHT22;36061;48.116;11.612;2023-06-22T01:04:25;21.60;99.90
50162;DHT22;36061;48.116;11.612;2023-06-22T01:07:07;21.60;99.90
50162;DHT22;36061;48.116;11.612;2023-06-22T01:09:44;21.50;99.90
50162;DHT22;36061;48.116;11.612;2023-06-22T01:12:14;21.50;99.90
50162;DHT22;36061;48.116;11.612;2023-06-22T01:14:43;21.50;99.90
50162;DHT22;36061;48.116;11.612;2023-06-22T01:17:15;21.40;99.90
50162;DHT22;36061;48.116;11.612;2023-06-22T01:19:45;21.40;99.90
50162;DHT22;36061;48.116;11.612;2023-06-22T01:22:16;21.40;99.90
50162;DHT22;36061;48.116;11.612;2023-06-22T01:24:53;21.40;99.90
50162;DHT22;36061;48.116;11.612;2023-06-22T01:27:43;21.30;99.90
50162;DHT22;36061;48.116;11.612;2023-06-22T01:30:16;21.30;99.90
50162;DHT22;36061;48.116;11.612;2023-06-22T01:32:46;21.30;99.90
50162;DHT22;36061;48.116;11.612;2023-06-22T01:35:14;21.30;99.90
50162;DHT22;36061;48.116;11.612;2023-06-22T01:37:42;21.30;99.90
50162;DHT22;36061;48.116;11.612;2023-06-22T01:40:11;21.30;99.90
50162;DHT22;36061;48.116;11.612;2023-06-22T01:42:39;21.30;99.90
50162;DHT22;36061;48.116;11.612;2023-06-22T01:45:07;21.30;99.90
50162;DHT22;36061;48.116;11.612;2023-06-22T01:47:38;21.30;99.90
50162;DHT22;36061;48.116;11.612;2023-06-22T01:50:07;21.30;99.90
50162;DHT22;36061;48.116;11.612;2023-06-22T01:52:35;21.20;99.90
50162;DHT22;36061;48.116;11.612;2023-06-22T01:55:04;21.20;99.90
50162;DHT22;36061;48.116;11.612;2023-06-22T01:57:33;21.20;99.90
50162;DHT22;36061;48.116;11.612;2023-06-22T02:00:02;21.20;99.90
50162;DHT22;36061;48.116;11.612;2023-06-22T02:02:47;21.10;99.90
50162;DHT22;36061;48.116;11.612;2023-06-22T02:05:17;21.10;99.90
50162;DHT22;36061;48.116;11.612;2023-06-22T02:07:49;21.10;99.90
50162;DHT22;36061;48.116;11.612;2023-06-22T02:10:20;21.00;99.90
50162;DHT22;36061;48.116;11.612;2023-06-22T02:12:50;21.00;99.90
50162;DHT22;36061;48.116;11.612;2023-06-22T02:15:18;21.00;99.90
50162;DHT22;36061;48.116;11.612;2023-06-22T02:17:48;21.00;99.90
50162;DHT22;36061;48.116;11.612;2023-06-22T02:20:15;20.90;99.90
50162;DHT22;36061;48.116;11.612;2023-06-22T02:22:42;20.90;99.90
50162;DHT22;36061;48.116;11.612;2023-06-22T02:25:10;20.90;99.90
50162;DHT22;36061;48.116;11.612;2023-06-22T02:27:38;20.90;99.90
50162;DHT22;36061;48.116;11.612;2023-06-22T02:30:07;21.00;99.90
50162;DHT22;36061;48.116;11.612;2023-06-22T02:32:35;21.00;99.90
50162;DHT22;36061;48.116;11.612;2023-06-22T02:35:04;21.00;99.90
50162;DHT22;36061;48.116;11.612;2023-06-22T02:37:32;21.00;99.90
50162;DHT22;36061;48.116;11.612;2023-06-22T02:39:59;21.10;99.90
50162;DHT22;36061;48.116;11.612;2023-06-22T02:42:27;21.10;99.90
50162;DHT22;36061;48.116;11.612;2023-06-22T02:44:54;21.10;99.90
50162;DHT22;36061;48.116;11.612;2023-06-22T02:47:21;21.10;99.90
50162;DHT22;36061;48.116;11.612;2023-06-22T02:49:49;21.10;99.90
50162;DHT22;36061;48.116;11.612;2023-06-22T02:52:18;21.10;99.90
50162;DHT22;36061;48.116;11.612;2023-06-22T02:54:45;21.10;99.90
50162;DHT22;36061;48.116;11.612;2023-06-22T02:57:14;21.10;99.90
50162;DHT22;36061;48.116;11.612;2023-06-22T02:59:42;21.10;99.90
50162;DHT22;36061;48.116;11.612;2023-06-22T03:02:11;21.10;99.90
50162;DHT22;36061;48.116;11.612;2023-06-22T03:04:39;21.10;99.90
50162;DHT22;36061;48.116;11.612;2023-06-22T03:07:06;21.10;99.90
50162;DHT22;36061;48.116;11.612;2023-06-22T03:09:35;21.10;99.90
50162;DHT22;36061;48.116;11.612;2023-06-22T03:12:03;21.10;99.90
50162;DHT22;36061;48.116;11.612;2023-06-22T03:14:39;21.00;99.90
50162;DHT22;36061;48.116;11.612;2023-06-22T03:17:06;21.00;99.90
50162;DHT22;36061;48.116;11.612;2023-06-22T03:19:33;21.00;99.90
50162;DHT22;36061;48.116;11.612;2023-06-22T03:22:01;20.90;99.90
50162;DHT22;36061;48.116;11.612;2023-06-22T03:24:28;20.90;99.90
50162;DHT22;36061;48.116;11.612;2023-06-22T03:26:57;20.80;99.90
50162;DHT22;36061;48.116;11.612;2023-06-22T03:29:24;20.70;99.90
50162;DHT22;36061;48.116;11.612;2023-06-22T03:31:52;20.70;99.90
50162;DHT22;36061;48.116;11.612;2023-06-22T03:34:19;20.60;99.90
50162;DHT22;36061;48.116;11.612;2023-06-22T03:36:46;20.60;99.90
50162;DHT22;36061;48.116;11.612;2023-06-22T03:39:13;20.50;99.90
50162;DHT22;36061;48.116;11.612;2023-06-22T03:41:41;20.50;99.90
50162;DHT22;36061;48.116;11.612;2023-06-22T03:44:09;20.50;99.90
50162;DHT22;36061;48.116;11.612;2023-06-22T03:46:38;20.50;99.90
50162;DHT22;36061;48.116;11.612;2023-06-22T03:49:05;20.50;99.90
50162;DHT22;36061;48.116;11.612;2023-06-22T03:51:33;20.40;99.90
50162;DHT22;36061;48.116;11.612;2023-06-22T03:54:00;20.40;99.90
50162;DHT22;36061;48.116;11.612;2023-06-22T03:56:27;20.40;99.90
50162;DHT22;36061;48.116;11.612;2023-06-22T03:58:54;20.40;99.90
50162;DHT22;36061;48.116;11.612;2023-06-22T04:01:23;20.40;99.90
50162;DHT22;36061;48.116;11.612;2023-06-22T04:03:50;20.40;99.90
50162;DHT22;36061;48.116;11.612;2023-06-22T04:06:18;20.40;99.90
50162;DHT22;36061;48.116;11.612;2023-06-22T04:08:46;20.40;99.90
50162;DHT22;36061;48.116;11.612;2023-06-22T04:11:16;20.40;99.90
50162;DHT22;36061;48.116;11.612;2023-06-22T04:13:43;20.40;99.90
50162;DHT22;36061;48.116;11.612;2023-06-22T04:16:11;20.50;99.90
50162;DHT22;36061;48.116;11.612;2023-06-22T04:18:39;20.60;99.90
50162;DHT22;36061;48.116;11.612;2023-06-22T04:21:07;20.60;99.90
50162;DHT22;36061;48.116;11.612;2023-06-22T04:23:34;20.60;99.90
50162;DHT22;36061;48.116;11.612;2023-06-22T04:26:02;20.60;99.90
50162;DHT22;36061;48.116;11.612;2023-06-22T04:28:29;20.60;99.90
50162;DHT22;36061;48.116;11.612;2023-06-22T04:31:00;20.60;99.90
50162;DHT22;36061;48.116;11.612;2023-06-22T04:33:28;20.70;99.90
50162;DHT22;36061;48.116;11.612;2023-06-22T04:35:57;20.70;99.90
50162;DHT22;36061;48.116;11.612;2023-06-22T04:38:27;20.80;99.90
50162;DHT22;36061;48.116;11.612;2023-06-22T04:40:54;20.80;99.90
50162;DHT22;36061;48.116;11.612;2023-06-22T04:43:21;20.90;99.90
50162;DHT22;36061;48.116;11.612;2023-06-22T04:45:48;20.90;99.90
50162;DHT22;36061;48.116;11.612;2023-06-22T04:48:18;21.00;99.90
50162;DHT22;36061;48.116;11.612;2023-06-22T04:50:45;21.00;99.90
50162;DHT22;36061;48.116;11.612;2023-06-22T04:53:14;21.00;99.90
50162;DHT22;36061;48.116;11.612;2023-06-22T04:55:41;21.00;99.90
50162;DHT22;36061;48.116;11.612;2023-06-22T04:58:11;21.10;99.90
50162;DHT22;36061;48.116;11.612;2023-06-22T05:00:38;21.10;99.90
50162;DHT22;36061;48.116;11.612;2023-06-22T05:03:06;21.20;99.90
50162;DHT22;36061;48.116;11.612;2023-06-22T05:05:36;21.30;99.90
50162;DHT22;36061;48.116;11.612;2023-06-22T05:08:04;21.40;99.90
50162;DHT22;36061;48.116;11.612;2023-06-22T05:10:34;21.50;99.90
50162;DHT22;36061;48.116;11.612;2023-06-22T05:13:01;21.60;99.90
50162;DHT22;36061;48.116;11.612;2023-06-22T05:15:28;21.70;99.90
50162;DHT22;36061;48.116;11.612;2023-06-22T05:17:59;21.80;99.90
50162;DHT22;36061;48.116;11.612;2023-06-22T05:20:31;21.70;99.90
50162;DHT22;36061;48.116;11.612;2023-06-22T05:22:59;21.80;99.90
50162;DHT22;36061;48.116;11.612;2023-06-22T05:25:26;21.80;99.90
50162;DHT22;36061;48.116;11.612;2023-06-22T05:27:57;21.90;99.90
50162;DHT22;36061;48.116;11.612;2023-06-22T05:30:24;22.00;99.90
50162;DHT22;36061;48.116;11.612;2023-06-22T05:32:51;22.00;99.90
50162;DHT22;36061;48.116;11.612;2023-06-22T05:35:19;22.10;99.90
50162;DHT22;36061;48.116;11.612;2023-06-22T05:37:46;22.20;99.90
50162;DHT22;36061;48.116;11.612;2023-06-22T05:40:13;22.30;99.90
50162;DHT22;36061;48.116;11.612;2023-06-22T05:42:41;22.40;99.90
50162;DHT22;36061;48.116;11.612;2023-06-22T05:45:10;22.50;99.90
50162;DHT22;36061;48.116;11.612;2023-06-22T05:47:37;22.60;99.90
50162;DHT22;36061;48.116;11.612;2023-06-22T05:50:05;22.70;99.90
50162;DHT22;36061;48.116;11.612;2023-06-22T05:52:34;22.70;99.90
50162;DHT22;36061;48.116;11.612;2023-06-22T05:55:02;22.70;99.90
50162;DHT22;36061;48.116;11.612;2023-06-22T05:57:29;22.80;99.90
50162;DHT22;36061;48.116;11.612;2023-06-22T05:59:57;22.90;99.90
50162;DHT22;36061;48.116;11.612;2023-06-22T06:02:25;23.00;99.90
50162;DHT22;36061;48.116;11.612;2023-06-22T06:04:52;23.10;99.90
50162;DHT22;36061;48.116;11.612;2023-06-22T06:07:21;23.20;99.90
50162;DHT22;36061;48.116;11.612;2023-06-22T06:09:48;23.20;99.90
50162;DHT22;36061;48.116;11.612;2023-06-22T06:12:15;23.30;99.90
50162;DHT22;36061;48.116;11.612;2023-06-22T06:14:42;23.40;99.90
50162;DHT22;36061;48.116;11.612;2023-06-22T06:17:09;23.50;99.90
50162;DHT22;36061;48.116;11.612;2023-06-22T06:19:38;23.60;99.90
50162;DHT22;36061;48.116;11.612;2023-06-22T06:22:05;23.60;99.90
50162;DHT22;36061;48.116;11.612;2023-06-22T06:24:33;23.60;99.90
50162;DHT22;36061;48.116;11.612;2023-06-22T06:27:00;23.60;99.90
50162;DHT22;36061;48.116;11.612;2023-06-22T06:29:30;23.60;99.90
50162;DHT22;36061;48.116;11.612;2023-06-22T06:31:57;23.60;99.90
50162;DHT22;36061;48.116;11.612;2023-06-22T06:34:25;23.60;99.90
50162;DHT22;36061;48.116;11.612;2023-06-22T06:36:53;23.60;99.90
50162;DHT22;36061;48.116;11.612;2023-06-22T06:39:20;23.70;99.90
50162;DHT22;36061;48.116;11.612;2023-06-22T06:41:48;23.70;99.90
50162;DHT22;36061;48.116;11.612;2023-06-22T06:44:15;23.70;99.90
50162;DHT22;36061;48.116;11.612;2023-06-22T06:46:43;23.70;99.90
50162;DHT22;36061;48.116;11.612;2023-06-22T06:49:10;23.70;99.90
50162;DHT22;36061;48.116;11.612;2023-06-22T06:51:37;23.70;99.90
50162;DHT22;36061;48.116;11.612;2023-06-22T06:54:06;23.70;99.90
50162;DHT22;36061;48.116;11.612;2023-06-22T06:56:33;23.80;99.90
50162;DHT22;36061;48.116;11.612;2023-06-22T06:59:00;23.80;99.90
50162;DHT22;36061;48.116;11.612;2023-06-22T07:01:27;23.90;99.90
50162;DHT22;36061;48.116;11.612;2023-06-22T07:03:59;23.90;99.90
50162;DHT22;36061;48.116;11.612;2023-06-22T07:06:27;24.00;99.90
50162;DHT22;36061;48.116;11.612;2023-06-22T07:08:57;24.10;99.90
50162;DHT22;36061;48.116;11.612;2023-06-22T07:11:27;24.10;99.90
50162;DHT22;36061;48.116;11.612;2023-06-22T07:13:54;24.20;99.90
50162;DHT22;36061;48.116;11.612;2023-06-22T07:16:21;24.20;99.90
50162;DHT22;36061;48.116;11.612;2023-06-22T07:18:48;24.30;99.90
50162;DHT22;36061;48.116;11.612;2023-06-22T07:21:16;24.30;99.90
50162;DHT22;36061;48.116;11.612;2023-06-22T07:23:43;24.40;99.90
50162;DHT22;36061;48.116;11.612;2023-06-22T07:26:10;24.50;99.90
50162;DHT22;36061;48.116;11.612;2023-06-22T07:28:39;24.60;99.90
50162;DHT22;36061;48.116;11.612;2023-06-22T07:31:07;24.60;99.90
50162;DHT22;36061;48.116;11.612;2023-06-22T07:33:34;24.70;99.90
50162;DHT22;36061;48.116;11.612;2023-06-22T07:36:01;24.70;99.90
50162;DHT22;36061;48.116;11.612;2023-06-22T07:38:33;24.80;99.90
50162;DHT22;36061;48.116;11.612;2023-06-22T07:41:02;24.90;99.90
50162;DHT22;36061;48.116;11.612;2023-06-22T07:43:31;24.90;99.90
50162;DHT22;36061;48.116;11.612;2023-06-22T07:46:00;24.90;99.90
50162;DHT22;36061;48.116;11.612;2023-06-22T07:48:27;25.00;99.90
50162;DHT22;36061;48.116;11.612;2023-06-22T07:50:54;25.00;99.90
50162;DHT22;36061;48.116;11.612;2023-06-22T07:53:22;25.10;99.90
50162;DHT22;36061;48.116;11.612;2023-06-22T07:55:50;25.10;99.90
50162;DHT22;36061;48.116;11.612;2023-06-22T07:58:17;25.10;99.90
50162;DHT22;36061;48.116;11.612;2023-06-22T08:00:47;25.20;99.90
50162;DHT22;36061;48.116;11.612;2023-06-22T08:03:16;25.20;99.90
50162;DHT22;36061;48.116;11.612;2023-06-22T08:05:43;25.30;99.90
50162;DHT22;36061;48.116;11.612;2023-06-22T08:08:11;25.30;99.90
50162;DHT22;36061;48.116;11.612;2023-06-22T08:10:40;25.30;99.90
50162;DHT22;36061;48.116;11.612;2023-06-22T08:13:08;25.30;99.90
50162;DHT22;36061;48.116;11.612;2023-06-22T08:15:35;25.30;99.90
50162;DHT22;36061;48.116;11.612;2023-06-22T08:18:02;25.40;99.90
50162;DHT22;36061;48.116;11.612;2023-06-22T08:20:31;25.40;99.90
50162;DHT22;36061;48.116;11.612;2023-06-22T08:22:58;25.40;99.90
50162;DHT22;36061;48.116;11.612;2023-06-22T08:25:31;25.50;99.90
50162;DHT22;36061;48.116;11.612;2023-06-22T08:27:58;25.50;99.90
50162;DHT22;36061;48.116;11.612;2023-06-22T08:30:26;25.60;99.90
50162;DHT22;36061;48.116;11.612;2023-06-22T08:32:54;25.60;99.90
50162;DHT22;36061;48.116;11.612;2023-06-22T08:35:22;25.70;99.90
50162;DHT22;36061;48.116;11.612;2023-06-22T08:37:50;25.70;99.90
50162;DHT22;36061;48.116;11.612;2023-06-22T08:40:20;25.80;99.90
50162;DHT22;36061;48.116;11.612;2023-06-22T08:42:48;25.80;99.90
50162;DHT22;36061;48.116;11.612;2023-06-22T08:45:16;25.80;99.90
50162;DHT22;36061;48.116;11.612;2023-06-22T08:47:43;25.80;99.90
50162;DHT22;36061;48.116;11.612;2023-06-22T08:50:11;25.90;99.90
50162;DHT22;36061;48.116;11.612;2023-06-22T08:52:39;25.90;99.90
50162;DHT22;36061;48.116;11.612;2023-06-22T08:55:09;26.00;99.90
50162;DHT22;36061;48.116;11.612;2023-06-22T08:57:37;26.00;99.90
50162;DHT22;36061;48.116;11.612;2023-06-22T09:00:06;26.10;99.90
50162;DHT22;36061;48.116;11.612;2023-06-22T09:02:41;26.10;99.90
50162;DHT22;36061;48.116;11.612;2023-06-22T09:05:09;26.20;99.90
50162;DHT22;36061;48.116;11.612;2023-06-22T09:07:36;26.30;99.90
50162;DHT22;36061;48.116;11.612;2023-06-22T09:10:04;26.30;99.90
50162;DHT22;36061;48.116;11.612;2023-06-22T09:12:34;26.30;99.90
50162;DHT22;36061;48.116;11.612;2023-06-22T09:15:04;26.40;99.90
50162;DHT22;36061;48.116;11.612;2023-06-22T09:17:33;26.50;99.90
50162;DHT22;36061;48.116;11.612;2023-06-22T09:20:01;26.50;99.90
50162;DHT22;36061;48.116;11.612;2023-06-22T09:22:31;26.50;99.90
50162;DHT22;36061;48.116;11.612;2023-06-22T09:24:59;26.60;99.90
50162;DHT22;36061;48.116;11.612;2023-06-22T09:27:26;26.60;99.90
50162;DHT22;36061;48.116;11.612;2023-06-22T09:29:55;26.70;99.90
50162;DHT22;36061;48.116;11.612;2023-06-22T09:32:24;26.70;99.90
50162;DHT22;36061;48.116;11.612;2023-06-22T09:34:51;26.80;99.90
50162;DHT22;36061;48.116;11.612;2023-06-22T09:37:19;26.90;99.90
50162;DHT22;36061;48.116;11.612;2023-06-22T09:39:46;26.90;99.90
50162;DHT22;36061;48.116;11.612;2023-06-22T09:42:13;27.00;99.90
50162;DHT22;36061;48.116;11.612;2023-06-22T09:44:40;27.10;99.90
50162;DHT22;36061;48.116;11.612;2023-06-22T09:47:09;27.10;99.90
50162;DHT22;36061;48.116;11.612;2023-06-22T09:49:36;27.20;99.90
50162;DHT22;36061;48.116;11.612;2023-06-22T09:52:04;27.30;99.90
50162;DHT22;36061;48.116;11.612;2023-06-22T09:54:31;27.30;99.90
50162;DHT22;36061;48.116;11.612;2023-06-22T09:56:58;27.40;99.90
50162;DHT22;36061;48.116;11.612;2023-06-22T09:59:26;27.50;99.90
50162;DHT22;36061;48.116;11.612;2023-06-22T10:01:53;27.50;99.90
50162;DHT22;36061;48.116;11.612;2023-06-22T10:04:21;27.60;99.90
50162;DHT22;36061;48.116;11.612;2023-06-22T10:06:50;27.60;99.90
50162;DHT22;36061;48.116;11.612;2023-06-22T10:09:17;27.70;99.90
50162;DHT22;36061;48.116;11.612;2023-06-22T10:11:44;27.70;99.90
50162;DHT22;36061;48.116;11.612;2023-06-22T10:14:12;27.80;99.90
50162;DHT22;36061;48.116;11.612;2023-06-22T10:16:39;27.80;99.90
50162;DHT22;36061;48.116;11.612;2023-06-22T10:19:07;27.90;99.90
50162;DHT22;36061;48.116;11.612;2023-06-22T10:21:35;28.00;99.90
50162;DHT22;36061;48.116;11.612;2023-06-22T10:24:03;28.10;99.90
50162;DHT22;36061;48.116;11.612;2023-06-22T10:26:32;28.10;99.90
50162;DHT22;36061;48.116;11.612;2023-06-22T10:29:00;28.20;99.90
50162;DHT22;36061;48.116;11.612;2023-06-22T10:31:27;28.20;99.90
50162;DHT22;36061;48.116;11.612;2023-06-22T10:33:54;28.30;99.90
50162;DHT22;36061;48.116;11.612;2023-06-22T10:36:22;28.30;99.90
50162;DHT22;36061;48.116;11.612;2023-06-22T10:38:50;28.40;99.90
50162;DHT22;36061;48.116;11.612;2023-06-22T10:41:19;28.40;99.90
50162;DHT22;36061;48.116;11.612;2023-06-22T10:43:46;28.40;99.90
50162;DHT22;36061;48.116;11.612;2023-06-22T10:46:13;28.40;99.90
50162;DHT22;36061;48.116;11.612;2023-06-22T10:48:40;28.50;99.90
50162;DHT22;36061;48.116;11.612;2023-06-22T10:51:08;28.50;99.90
50162;DHT22;36061;48.116;11.612;2023-06-22T10:53:35;28.60;99.90
50162;DHT22;36061;48.116;11.612;2023-06-22T10:56:04;28.60;99.90
50162;DHT22;36061;48.116;11.612;2023-06-22T10:58:31;28.60;99.90
50162;DHT22;36061;48.116;11.612;2023-06-22T11:00:58;28.70;99.90
50162;DHT22;36061;48.116;11.612;2023-06-22T11:03:25;28.70;99.90
50162;DHT22;36061;48.116;11.612;2023-06-22T11:05:53;28.80;99.90
50162;DHT22;36061;48.116;11.612;2023-06-22T11:08:20;28.80;99.90
50162;DHT22;36061;48.116;11.612;2023-06-22T11:10:47;28.90;99.90
50162;DHT22;36061;48.116;11.612;2023-06-22T11:13:16;29.00;99.90
50162;DHT22;36061;48.116;11.612;2023-06-22T11:15:43;29.00;99.90
50162;DHT22;36061;48.116;11.612;2023-06-22T11:18:10;29.00;99.90
50162;DHT22;36061;48.116;11.612;2023-06-22T11:20:37;29.00;99.90
50162;DHT22;36061;48.116;11.612;2023-06-22T11:23:06;29.00;99.90
50162;DHT22;36061;48.116;11.612;2023-06-22T11:25:34;29.00;99.90
50162;DHT22;36061;48.116;11.612;2023-06-22T11:28:02;29.00;99.90
50162;DHT22;36061;48.116;11.612;2023-06-22T11:30:31;29.00;99.90
50162;DHT22;36061;48.116;11.612;2023-06-22T11:32:59;29.00;99.90
50162;DHT22;36061;48.116;11.612;2023-06-22T11:35:26;29.00;99.90
50162;DHT22;36061;48.116;11.612;2023-06-22T11:37:53;29.00;99.90
50162;DHT22;36061;48.116;11.612;2023-06-22T11:40:21;29.10;99.90
50162;DHT22;36061;48.116;11.612;2023-06-22T11:42:49;29.10;99.90
50162;DHT22;36061;48.116;11.612;2023-06-22T11:45:16;29.20;99.90
50162;DHT22;36061;48.116;11.612;2023-06-22T11:47:46;29.30;99.90
50162;DHT22;36061;48.116;11.612;2023-06-22T11:50:13;29.30;99.90
50162;DHT22;36061;48.116;11.612;2023-06-22T11:52:40;29.40;99.90
50162;DHT22;36061;48.116;11.612;2023-06-22T11:55:08;29.40;99.90
50162;DHT22;36061;48.116;11.612;2023-06-22T11:57:36;29.50;99.90
50162;DHT22;36061;48.116;11.612;2023-06-22T12:00:05;29.50;99.90
50162;DHT22;36061;48.116;11.612;2023-06-22T12:02:41;29.50;99.90
50162;DHT22;36061;48.116;11.612;2023-06-22T12:05:10;29.60;99.90
50162;DHT22;36061;48.116;11.612;2023-06-22T12:07:38;29.60;99.90
50162;DHT22;36061;48.116;11.612;2023-06-22T12:10:06;29.60;99.90
50162;DHT22;36061;48.116;11.612;2023-06-22T12:12:33;29.60;99.90
50162;DHT22;36061;48.116;11.612;2023-06-22T12:15:00;29.60;99.90
50162;DHT22;36061;48.116;11.612;2023-06-22T12:17:30;29.60;99.90
50162;DHT22;36061;48.116;11.612;2023-06-22T12:19:58;29.60;99.90
50162;DHT22;36061;48.116;11.612;2023-06-22T12:22:26;29.60;99.90
50162;DHT22;36061;48.116;11.612;2023-06-22T12:24:53;29.60;99.90
50162;DHT22;36061;48.116;11.612;2023-06-22T12:27:20;29.60;99.90
50162;DHT22;36061;48.116;11.612;2023-06-22T12:29:48;29.70;99.90
50162;DHT22;36061;48.116;11.612;2023-06-22T12:32:15;29.80;99.90
50162;DHT22;36061;48.116;11.612;2023-06-22T12:34:43;29.80;99.90
50162;DHT22;36061;48.116;11.612;2023-06-22T12:37:11;29.90;99.90
50162;DHT22;36061;48.116;11.612;2023-06-22T12:39:40;29.90;99.90
50162;DHT22;36061;48.116;11.612;2023-06-22T12:42:07;30.00;99.90
50162;DHT22;36061;48.116;11.612;2023-06-22T12:44:35;30.00;99.90
50162;DHT22;36061;48.116;11.612;2023-06-22T12:47:02;30.10;99.70
50162;DHT22;36061;48.116;11.612;2023-06-22T12:49:29;30.20;99.50
50162;DHT22;36061;48.116;11.612;2023-06-22T12:51:57;30.20;99.20
50162;DHT22;36061;48.116;11.612;2023-06-22T12:54:24;30.20;98.80
50162;DHT22;36061;48.116;11.612;2023-06-22T12:56:52;30.20;98.70
50162;DHT22;36061;48.116;11.612;2023-06-22T12:59:20;30.20;98.90
50162;DHT22;36061;48.116;11.612;2023-06-22T13:01:47;30.20;99.20
50162;DHT22;36061;48.116;11.612;2023-06-22T13:04:14;30.20;98.80
50162;DHT22;36061;48.116;11.612;2023-06-22T13:06:41;30.30;98.70
50162;DHT22;36061;48.116;11.612;2023-06-22T13:09:10;30.30;98.20
50162;DHT22;36061;48.116;11.612;2023-06-22T13:11:37;30.40;98.10
50162;DHT22;36061;48.116;11.612;2023-06-22T13:14:06;30.40;98.30
50162;DHT22;36061;48.116;11.612;2023-06-22T13:16:33;30.40;98.60
50162;DHT22;36061;48.116;11.612;2023-06-22T13:19:00;30.40;98.90
50162;DHT22;36061;48.116;11.612;2023-06-22T13:21:27;30.50;99.30
50162;DHT22;36061;48.116;11.612;2023-06-22T13:23:55;30.50;99.50
50162;DHT22;36061;48.116;11.612;2023-06-22T13:26:22;30.50;99.50
50162;DHT22;36061;48.116;11.612;2023-06-22T13:28:49;30.50;99.60
50162;DHT22;36061;48.116;11.612;2023-06-22T13:31:18;30.60;99.50
50162;DHT22;36061;48.116;11.612;2023-06-22T13:33:45;30.60;99.30
50162;DHT22;36061;48.116;11.612;2023-06-22T13:36:13;30.60;99.40
50162;DHT22;36061;48.116;11.612;2023-06-22T13:38:41;30.60;99.80
50162;DHT22;36061;48.116;11.612;2023-06-22T13:41:08;30.60;99.80
50162;DHT22;36061;48.116;11.612;2023-06-22T13:43:35;30.60;99.90
50162;DHT22;36061;48.116;11.612;2023-06-22T13:46:02;30.60;99.90
50162;DHT22;36061;48.116;11.612;2023-06-22T13:48:31;30.60;99.90
50162;DHT22;36061;48.116;11.612;2023-06-22T13:50:58;30.50;99.90
50162;DHT22;36061;48.116;11.612;2023-06-22T13:53:25;30.50;99.90
50162;DHT22;36061;48.116;11.612;2023-06-22T13:55:52;30.50;99.90
50162;DHT22;36061;48.116;11.612;2023-06-22T13:58:20;30.50;99.90
50162;DHT22;36061;48.116;11.612;2023-06-22T14:00:47;30.50;99.80
50162;DHT22;36061;48.116;11.612;2023-06-22T14:03:15;30.50;99.90
50162;DHT22;36061;48.116;11.612;2023-06-22T14:05:44;30.50;99.80
50162;DHT22;36061;48.116;11.612;2023-06-22T14:08:11;30.60;99.90
50162;DHT22;36061;48.116;11.612;2023-06-22T14:10:39;30.60;99.90
50162;DHT22;36061;48.116;11.612;2023-06-22T14:13:06;30.60;99.70
50162;DHT22;36061;48.116;11.612;2023-06-22T14:15:33;30.60;99.70
50162;DHT22;36061;48.116;11.612;2023-06-22T14:18:00;30.60;99.60
50162;DHT22;36061;48.116;11.612;2023-06-22T14:20:27;30.50;99.60
50162;DHT22;36061;48.116;11.612;2023-06-22T14:22:56;30.50;99.60
50162;DHT22;36061;48.116;11.612;2023-06-22T14:25:23;30.60;99.60
50162;DHT22;36061;48.116;11.612;2023-06-22T14:27:50;30.50;99.40
50162;DHT22;36061;48.116;11.612;2023-06-22T14:30:18;30.50;99.30
50162;DHT22;36061;48.116;11.612;2023-06-22T14:32:45;30.50;99.50
50162;DHT22;36061;48.116;11.612;2023-06-22T14:35:12;30.50;99.30
50162;DHT22;36061;48.116;11.612;2023-06-22T14:37:39;30.50;99.30
50162;DHT22;36061;48.116;11.612;2023-06-22T14:40:09;30.50;99.40
50162;DHT22;36061;48.116;11.612;2023-06-22T14:42:36;30.50;99.40
50162;DHT22;36061;48.116;11.612;2023-06-22T14:45:04;30.50;99.50
50162;DHT22;36061;48.116;11.612;2023-06-22T14:47:31;30.50;99.20
50162;DHT22;36061;48.116;11.612;2023-06-22T14:49:59;30.50;99.10
50162;DHT22;36061;48.116;11.612;2023-06-22T14:52:27;30.50;99.10
50162;DHT22;36061;48.116;11.612;2023-06-22T14:54:55;30.50;99.00
50162;DHT22;36061;48.116;11.612;2023-06-22T14:57:24;30.50;99.00
50162;DHT22;36061;48.116;11.612;2023-06-22T14:59:51;30.50;99.10
50162;DHT22;36061;48.116;11.612;2023-06-22T15:02:19;30.40;99.20
50162;DHT22;36061;48.116;11.612;2023-06-22T15:04:46;30.40;99.30
50162;DHT22;36061;48.116;11.612;2023-06-22T15:07:14;30.40;99.40
50162;DHT22;36061;48.116;11.612;2023-06-22T15:09:41;30.40;99.30
50162;DHT22;36061;48.116;11.612;2023-06-22T15:12:11;30.40;99.10
50162;DHT22;36061;48.116;11.612;2023-06-22T15:14:40;30.40;99.10
50162;DHT22;36061;48.116;11.612;2023-06-22T15:17:08;30.40;99.00
50162;DHT22;36061;48.116;11.612;2023-06-22T15:19:35;30.30;98.90